createdAt,value
2018-07-23T00:02:00.692Z,17.90
2018-07-23T00:04:35.786Z,18.00
2018-07-23T00:07:10.018Z,18.00
2018-07-23T00:09:44.687Z,18.00
2018-07-23T00:12:20.344Z,18.00
2018-07-23T00:14:55.113Z,17.90
2018-07-23T00:17:30.712Z,18.00
2018-07-23T00:20:06.568Z,18.00
2018-07-23T00:22:40.869Z,18.00
2018-07-23T00:25:16.508Z,17.90
2018-07-23T00:27:51.528Z,17.90
2018-07-23T00:30:26.227Z,17.90
2018-07-23T00:33:00.827Z,17.90
2018-07-23T00:35:35.800Z,17.90
2018-07-23T00:38:10.686Z,17.90
2018-07-23T00:40:45.402Z,17.90
2018-07-23T00:43:20.087Z,17.90
2018-07-23T00:45:54.652Z,17.90
2018-07-23T00:48:29.389Z,17.90
2018-07-23T00:51:04.323Z,17.90
2018-07-23T00:53:39.125Z,17.90
2018-07-23T00:56:13.805Z,17.90
2018-07-23T00:58:48.720Z,17.90
2018-07-23T01:01:23.448Z,17.80
2018-07-23T01:03:57.752Z,17.80
2018-07-23T01:06:32.597Z,17.80
2018-07-23T01:09:09.589Z,17.80
2018-07-23T01:11:44.612Z,17.80
2018-07-23T01:14:19.609Z,17.80
2018-07-23T01:16:54.294Z,17.80
2018-07-23T01:19:28.620Z,17.70
2018-07-23T01:22:03.235Z,17.80
2018-07-23T01:24:38.381Z,17.70
2018-07-23T01:27:12.649Z,17.70
2018-07-23T01:29:47.767Z,17.70
2018-07-23T01:32:22.544Z,17.70
2018-07-23T01:34:57.262Z,17.60
2018-07-23T01:37:32.159Z,17.60
2018-07-23T01:40:07.429Z,17.60
2018-07-23T01:42:42.360Z,17.60
2018-07-23T01:45:17.434Z,17.50
2018-07-23T01:47:51.714Z,17.50
2018-07-23T01:50:26.655Z,17.40
2018-07-23T01:53:00.885Z,17.40
2018-07-23T01:55:35.625Z,17.40
2018-07-23T01:58:10.446Z,17.40
2018-07-23T02:00:45.356Z,17.40
2018-07-23T02:03:20.038Z,17.40
2018-07-23T02:05:54.703Z,17.30
2018-07-23T02:08:29.350Z,17.30
2018-07-23T02:11:05.167Z,17.30
2018-07-23T02:13:40.352Z,17.30
2018-07-23T02:16:14.702Z,17.40
2018-07-23T02:18:49.584Z,17.40
2018-07-23T02:21:24.280Z,17.40
2018-07-23T02:23:59.299Z,17.40
2018-07-23T02:26:35.197Z,17.40
2018-07-23T02:29:10.685Z,17.40
2018-07-23T02:31:45.638Z,17.40
2018-07-23T02:34:20.048Z,17.40
2018-07-23T02:36:54.875Z,17.40
2018-07-23T02:39:29.456Z,17.40
2018-07-23T02:42:04.502Z,17.40
2018-07-23T02:44:38.810Z,17.40
2018-07-23T02:47:13.524Z,17.40
2018-07-23T02:49:48.348Z,17.40
2018-07-23T02:52:23.626Z,17.50
2018-07-23T02:54:58.715Z,17.40
2018-07-23T02:57:33.681Z,17.40
2018-07-23T03:00:08.466Z,17.40
2018-07-23T03:02:42.602Z,17.40
2018-07-23T03:05:17.213Z,17.40
2018-07-23T03:07:52.177Z,17.40
2018-07-23T03:10:26.881Z,17.50
2018-07-23T03:13:01.689Z,17.50
2018-07-23T03:15:36.535Z,17.50
2018-07-23T03:18:11.145Z,17.50
2018-07-23T03:20:46.109Z,17.50
2018-07-23T03:23:20.878Z,17.50
2018-07-23T03:25:56.111Z,17.50
2018-07-23T03:28:30.744Z,17.50
2018-07-23T03:31:05.676Z,17.50
2018-07-23T03:33:40.548Z,17.50
2018-07-23T03:36:15.219Z,17.50
2018-07-23T03:38:49.912Z,17.50
2018-07-23T03:41:24.138Z,17.60
2018-07-23T03:43:59.112Z,17.60
2018-07-23T03:46:34.426Z,17.60
2018-07-23T03:49:09.584Z,17.60
2018-07-23T03:51:43.914Z,17.60
2018-07-23T03:54:19.009Z,17.60
2018-07-23T03:56:53.612Z,17.60
2018-07-23T03:59:29.661Z,17.60
2018-07-23T04:02:04.557Z,17.60
2018-07-23T04:04:40.286Z,17.60
2018-07-23T04:07:15.930Z,17.60
2018-07-23T04:09:50.923Z,17.60
2018-07-23T04:12:25.479Z,17.60
2018-07-23T04:15:00.488Z,17.60
2018-07-23T04:20:10.037Z,17.60
2018-07-23T04:22:44.470Z,17.60
2018-07-23T04:25:19.397Z,17.70
2018-07-23T04:27:53.759Z,17.70
2018-07-23T04:30:29.562Z,17.70
2018-07-23T04:35:39.256Z,17.80
2018-07-23T04:38:13.976Z,17.80
2018-07-23T04:40:48.716Z,17.90
2018-07-23T04:43:23.318Z,17.90
2018-07-23T04:45:58.032Z,17.90
2018-07-23T04:48:32.714Z,17.90
2018-07-23T04:51:07.386Z,17.90
2018-07-23T04:53:42.430Z,18.00
2018-07-23T04:56:17.051Z,18.00
2018-07-23T04:58:53.464Z,18.00
2018-07-23T05:01:28.899Z,18.10
2018-07-23T05:04:03.389Z,18.10
2018-07-23T05:06:38.266Z,18.10
2018-07-23T05:09:12.684Z,18.20
2018-07-23T05:11:47.692Z,18.30
2018-07-23T05:14:22.378Z,18.40
2018-07-23T05:16:57.500Z,18.40
2018-07-23T05:19:32.117Z,18.40
2018-07-23T05:22:06.566Z,18.40
2018-07-23T05:24:41.499Z,18.40
2018-07-23T05:27:16.381Z,18.40
2018-07-23T05:29:50.977Z,18.40
2018-07-23T05:32:26.050Z,18.40
2018-07-23T05:35:00.910Z,18.50
2018-07-23T05:37:35.616Z,18.50
2018-07-23T05:40:10.327Z,18.50
2018-07-23T05:42:46.355Z,18.50
2018-07-23T05:45:20.838Z,18.50
2018-07-23T05:50:30.303Z,18.50
2018-07-23T05:53:05.188Z,18.50
2018-07-23T05:55:39.654Z,18.50
2018-07-23T05:58:14.409Z,18.60
2018-07-23T06:00:49.138Z,18.70
2018-07-23T06:03:23.906Z,18.70
2018-07-23T06:05:58.632Z,18.80
2018-07-23T06:08:34.490Z,18.90
2018-07-23T06:11:09.517Z,19.00
2018-07-23T06:13:44.279Z,19.10
2018-07-23T06:16:19.621Z,19.20
2018-07-23T06:18:54.418Z,19.30
2018-07-23T06:21:30.034Z,19.40
2018-07-23T06:24:05.386Z,19.60
2018-07-23T06:26:39.978Z,19.60
2018-07-23T06:29:15.453Z,19.70
2018-07-23T06:31:49.906Z,19.90
2018-07-23T06:34:25.165Z,20.00
2018-07-23T06:36:59.763Z,20.00
2018-07-23T06:39:34.350Z,20.10
2018-07-23T06:42:09.299Z,20.20
2018-07-23T06:44:43.756Z,20.20
2018-07-23T06:47:18.460Z,20.20
2018-07-23T06:49:53.391Z,20.20
2018-07-23T06:52:27.785Z,20.20
2018-07-23T06:55:02.505Z,20.20
2018-07-23T06:57:37.240Z,20.20
2018-07-23T07:00:12.000Z,20.20
2018-07-23T07:02:46.661Z,20.20
2018-07-23T07:05:22.120Z,20.20
2018-07-23T07:07:56.441Z,20.20
2018-07-23T07:10:31.830Z,20.20
2018-07-23T07:13:06.102Z,20.10
2018-07-23T07:15:41.011Z,20.10
2018-07-23T07:18:15.773Z,20.20
2018-07-23T07:20:50.457Z,20.20
2018-07-23T07:23:25.397Z,20.20
2018-07-23T07:26:00.227Z,20.20
2018-07-23T07:28:34.982Z,20.20
2018-07-23T07:31:09.192Z,20.20
2018-07-23T07:33:43.922Z,20.20
2018-07-23T07:36:18.631Z,20.20
2018-07-23T07:38:53.473Z,20.20
2018-07-23T07:41:28.138Z,20.30
2018-07-23T07:44:02.900Z,20.30
2018-07-23T07:46:39.423Z,20.40
2018-07-23T07:49:13.568Z,20.50
2018-07-23T07:51:48.177Z,20.60
2018-07-23T07:54:23.082Z,20.90
2018-07-23T07:56:57.965Z,21.00
2018-07-23T07:59:33.511Z,21.20
2018-07-23T08:02:08.553Z,21.30
2018-07-23T08:04:43.188Z,21.50
2018-07-23T08:07:18.699Z,21.60
2018-07-23T08:09:52.976Z,21.70
2018-07-23T08:12:28.739Z,21.80
2018-07-23T08:15:03.929Z,21.90
2018-07-23T08:17:38.519Z,21.90
2018-07-23T08:20:13.152Z,22.00
2018-07-23T08:22:48.010Z,22.00
2018-07-23T08:25:22.597Z,21.90
2018-07-23T08:27:57.499Z,21.90
2018-07-23T08:30:32.157Z,21.80
2018-07-23T08:33:07.347Z,21.80
2018-07-23T08:35:41.543Z,21.70
2018-07-23T08:38:16.369Z,21.70
2018-07-23T08:40:51.240Z,21.70
2018-07-23T08:43:26.123Z,21.80
2018-07-23T08:46:01.029Z,21.80
2018-07-23T08:48:36.040Z,21.90
2018-07-23T08:51:10.810Z,21.90
2018-07-23T08:53:45.427Z,21.90
2018-07-23T08:56:20.324Z,21.90
2018-07-23T08:58:55.024Z,21.90
2018-07-23T09:01:29.555Z,21.80
2018-07-23T09:04:03.933Z,21.80
2018-07-23T09:06:38.773Z,21.70
2018-07-23T09:09:13.347Z,21.70
2018-07-23T09:11:48.318Z,21.70
2018-07-23T09:14:22.991Z,21.70
2018-07-23T09:16:58.061Z,21.80
2018-07-23T09:19:32.906Z,21.70
2018-07-23T09:22:07.988Z,21.70
2018-07-23T09:24:42.838Z,21.70
2018-07-23T09:27:17.742Z,21.70
2018-07-23T09:29:52.510Z,21.70
2018-07-23T09:32:28.421Z,21.80
2018-07-23T09:35:03.168Z,21.80
2018-07-23T09:37:38.152Z,21.80
2018-07-23T09:40:13.181Z,21.80
2018-07-23T09:42:47.648Z,21.90
2018-07-23T09:45:22.439Z,21.90
2018-07-23T09:47:58.366Z,22.10
2018-07-23T09:50:33.328Z,22.20
2018-07-23T09:55:43.058Z,22.40
2018-07-23T09:58:17.790Z,22.50
2018-07-23T10:00:57.162Z,22.50
2018-07-23T10:03:32.442Z,22.50
2018-07-23T10:06:07.560Z,22.50
2018-07-23T10:08:42.680Z,22.60
2018-07-23T10:11:17.092Z,22.70
2018-07-23T10:13:51.908Z,22.90
2018-07-23T10:16:26.759Z,23.00
2018-07-23T10:19:02.376Z,23.10
2018-07-23T10:21:37.096Z,23.30
2018-07-23T10:24:11.694Z,23.30
2018-07-23T10:26:46.345Z,23.40
2018-07-23T10:31:55.544Z,23.60
2018-07-23T10:34:30.457Z,23.90
2018-07-23T10:37:05.163Z,24.00
2018-07-23T10:39:39.877Z,24.30
2018-07-23T10:42:14.652Z,24.80
2018-07-23T10:44:50.709Z,25.00
2018-07-23T10:47:25.686Z,25.20
2018-07-23T10:49:59.998Z,25.30
2018-07-23T10:52:34.098Z,25.70
2018-07-23T10:55:08.797Z,25.90
2018-07-23T10:57:43.531Z,26.00
2018-07-23T11:00:18.268Z,26.10
2018-07-23T11:02:53.366Z,26.10
2018-07-23T11:05:28.471Z,26.10
2018-07-23T11:08:03.120Z,26.20
2018-07-23T11:10:37.507Z,26.20
2018-07-23T11:13:12.157Z,26.20
2018-07-23T11:15:47.147Z,26.20
2018-07-23T11:18:21.323Z,26.20
2018-07-23T11:21:03.606Z,26.20
2018-07-23T11:26:12.782Z,26.30
2018-07-23T11:28:48.197Z,26.40
2018-07-23T11:31:22.875Z,26.40
2018-07-23T11:33:58.832Z,26.30
2018-07-23T11:36:33.613Z,26.20
2018-07-23T11:39:10.216Z,26.10
2018-07-23T11:41:44.356Z,25.90
2018-07-23T11:44:19.438Z,25.70
2018-07-23T11:46:54.098Z,25.60
2018-07-23T11:49:28.828Z,25.50
2018-07-23T11:52:03.574Z,25.50
2018-07-23T11:54:38.850Z,25.40
2018-07-23T11:57:13.514Z,25.20
2018-07-23T11:59:48.364Z,25.10
2018-07-23T12:02:23.397Z,25.00
2018-07-23T12:04:58.402Z,24.90
2018-07-23T12:07:33.115Z,24.90
2018-07-23T12:10:07.788Z,24.90
2018-07-23T12:12:42.615Z,24.80
2018-07-23T12:15:17.358Z,24.90
2018-07-23T12:17:51.901Z,24.90
2018-07-23T12:20:26.524Z,25.00
2018-07-23T12:23:01.232Z,25.10
2018-07-23T12:25:35.935Z,25.20
2018-07-23T12:28:10.692Z,25.10
2018-07-23T12:30:45.366Z,25.00
2018-07-23T12:33:20.404Z,24.90
2018-07-23T12:35:54.860Z,24.80
2018-07-23T12:38:29.466Z,24.70
2018-07-23T12:41:04.280Z,24.60
2018-07-23T12:43:39.175Z,24.50
2018-07-23T12:46:13.649Z,24.40
2018-07-23T12:48:48.313Z,24.30
2018-07-23T12:51:23.039Z,24.20
2018-07-23T12:53:57.753Z,24.10
2018-07-23T12:56:32.408Z,24.00
2018-07-23T12:59:07.117Z,23.90
2018-07-23T13:01:41.270Z,23.90
2018-07-23T13:04:16.973Z,23.90
2018-07-23T13:06:51.239Z,24.00
2018-07-23T13:09:26.031Z,24.10
2018-07-23T13:12:01.394Z,24.10
2018-07-23T13:14:35.917Z,24.10
2018-07-23T13:17:10.688Z,24.10
2018-07-23T13:19:45.350Z,24.10
2018-07-23T13:22:20.052Z,24.10
2018-07-23T13:27:29.422Z,24.00
2018-07-23T13:30:04.862Z,24.00
2018-07-23T13:32:40.623Z,23.90
2018-07-23T13:35:16.109Z,23.80
2018-07-23T13:37:50.399Z,23.80
2018-07-23T13:40:25.399Z,23.70
2018-07-23T13:43:00.356Z,23.60
2018-07-23T13:45:35.090Z,23.50
2018-07-23T13:48:09.787Z,23.50
2018-07-23T13:50:44.566Z,23.40
2018-07-23T13:53:19.119Z,23.30
2018-07-23T13:55:54.517Z,23.30
2018-07-23T13:58:29.282Z,23.20
2018-07-23T14:01:04.559Z,23.20
2018-07-23T14:03:38.984Z,23.20
2018-07-23T14:06:14.434Z,23.20
2018-07-23T14:08:49.453Z,23.20
2018-07-23T14:11:24.044Z,23.20
2018-07-23T14:13:59.106Z,23.30
2018-07-23T14:16:34.343Z,23.30
2018-07-23T14:19:09.198Z,23.30
2018-07-23T14:21:44.345Z,23.30
2018-07-23T14:24:19.396Z,23.30
2018-07-23T14:26:54.239Z,23.20
2018-07-23T14:29:29.065Z,23.20
2018-07-23T14:32:04.655Z,23.10
2018-07-23T14:34:38.823Z,23.10
2018-07-23T14:37:13.462Z,23.00
2018-07-23T14:39:48.192Z,23.00
2018-07-23T14:42:23.488Z,22.90
2018-07-23T14:44:57.838Z,22.90
2018-07-23T14:47:32.916Z,22.90
2018-07-23T14:52:42.273Z,23.00
2018-07-23T14:55:16.672Z,23.10
2018-07-23T14:57:51.544Z,23.10
2018-07-23T15:00:26.238Z,23.20
2018-07-23T15:03:01.083Z,23.30
2018-07-23T15:05:36.111Z,23.30
2018-07-23T15:08:10.747Z,23.30
2018-07-23T15:10:45.582Z,23.30
2018-07-23T15:13:20.547Z,23.30
2018-07-23T15:15:55.762Z,23.30
2018-07-23T15:18:31.085Z,23.20
2018-07-23T15:21:05.904Z,23.20
2018-07-23T15:23:40.604Z,23.20
2018-07-23T15:26:14.938Z,23.20
2018-07-23T15:28:49.491Z,23.10
2018-07-23T15:31:23.736Z,23.10
2018-07-23T15:33:58.464Z,23.10
2018-07-23T15:36:33.396Z,23.10
2018-07-23T15:39:10.011Z,23.10
2018-07-23T15:41:44.830Z,23.10
2018-07-23T15:44:20.157Z,23.10
2018-07-23T15:46:54.662Z,23.10
2018-07-23T15:49:29.073Z,23.10
2018-07-23T15:52:03.864Z,23.10
2018-07-23T15:54:38.542Z,23.10
2018-07-23T15:57:13.317Z,23.10
2018-07-23T15:59:48.235Z,23.10
2018-07-23T16:02:22.756Z,23.10
2018-07-23T16:04:56.928Z,23.10
2018-07-23T16:07:31.966Z,23.10
2018-07-23T16:10:06.810Z,23.10
2018-07-23T16:12:41.050Z,23.10
2018-07-23T16:15:16.028Z,23.10
2018-07-23T16:17:51.162Z,23.10
2018-07-23T16:20:25.434Z,23.10
2018-07-23T16:23:00.157Z,23.10
2018-07-23T16:25:34.730Z,23.10
2018-07-23T16:28:09.788Z,23.10
2018-07-23T16:30:44.285Z,23.10
2018-07-23T16:33:18.977Z,23.10
2018-07-23T16:35:53.677Z,23.10
2018-07-23T16:38:28.435Z,23.10
2018-07-23T16:41:03.374Z,23.10
2018-07-23T16:43:37.992Z,23.10
2018-07-23T16:46:12.717Z,23.10
2018-07-23T16:48:47.532Z,23.10
2018-07-23T16:51:22.536Z,23.10
2018-07-23T16:53:57.991Z,23.10
2018-07-23T16:56:33.047Z,23.00
2018-07-23T16:59:07.888Z,23.10
2018-07-23T17:01:43.131Z,23.00
2018-07-23T17:04:17.503Z,23.00
2018-07-23T17:06:52.093Z,23.00
2018-07-23T17:09:27.007Z,23.00
2018-07-23T17:12:01.884Z,23.00
2018-07-23T17:14:36.297Z,23.00
2018-07-23T17:17:11.088Z,22.90
2018-07-23T17:19:46.179Z,22.90
2018-07-23T17:22:20.649Z,22.90
2018-07-23T17:24:56.293Z,22.90
2018-07-23T17:27:31.231Z,22.90
2018-07-23T17:30:06.175Z,22.90
2018-07-23T17:32:40.747Z,22.90
2018-07-23T17:35:15.719Z,22.90
2018-07-23T17:37:50.289Z,22.90
2018-07-23T17:40:25.363Z,22.90
2018-07-23T17:42:59.806Z,22.90
2018-07-23T17:45:34.667Z,22.80
2018-07-23T17:48:09.512Z,22.90
2018-07-23T17:50:44.603Z,22.90
2018-07-23T17:53:19.153Z,22.90
2018-07-23T17:55:53.511Z,22.90
2018-07-23T17:58:28.500Z,23.00
2018-07-23T18:01:03.212Z,23.00
2018-07-23T18:06:12.545Z,23.00
2018-07-23T18:08:47.719Z,23.00
2018-07-23T18:11:22.776Z,22.90
2018-07-23T18:13:58.158Z,22.90
2018-07-23T18:16:33.281Z,22.80
2018-07-23T18:19:08.214Z,22.50
2018-07-23T18:21:43.742Z,22.00
2018-07-23T18:24:19.313Z,21.50
2018-07-23T18:26:54.731Z,21.30
2018-07-23T18:29:29.954Z,21.00
2018-07-23T18:32:04.763Z,20.80
2018-07-23T18:34:39.639Z,20.70
2018-07-23T18:37:14.622Z,20.50
2018-07-23T18:39:49.116Z,20.40
2018-07-23T18:42:24.270Z,20.30
2018-07-23T18:44:59.044Z,20.20
2018-07-23T18:47:35.133Z,20.20
2018-07-23T18:50:11.713Z,20.20
2018-07-23T18:52:47.272Z,20.20
2018-07-23T18:55:24.203Z,20.10
2018-07-23T18:58:01.362Z,20.00
2018-07-23T19:00:39.360Z,20.10
2018-07-23T19:03:16.758Z,20.00
2018-07-23T19:05:53.343Z,19.90
2018-07-23T19:08:29.889Z,19.90
2018-07-23T19:11:06.753Z,19.90
2018-07-23T19:13:45.233Z,19.90
2018-07-23T19:16:21.499Z,19.90
2018-07-23T19:19:01.046Z,19.90
2018-07-23T19:21:38.161Z,19.90
2018-07-23T19:24:15.195Z,19.80
2018-07-23T19:26:52.588Z,19.80
2018-07-23T19:29:29.040Z,19.80
2018-07-23T19:32:05.934Z,19.80
2018-07-23T19:34:43.177Z,19.80
2018-07-23T19:37:21.563Z,19.80
2018-07-23T19:39:58.109Z,19.80
2018-07-23T19:42:35.522Z,19.70
2018-07-23T19:45:12.440Z,19.70
2018-07-23T19:47:49.711Z,19.70
2018-07-23T19:50:26.756Z,19.70
2018-07-23T19:53:04.782Z,19.60
2018-07-23T19:55:41.863Z,19.70
2018-07-23T19:58:18.804Z,19.60
2018-07-23T20:00:55.687Z,19.60
2018-07-23T20:03:31.943Z,19.60
2018-07-23T20:06:09.062Z,19.60
2018-07-23T20:08:45.696Z,19.50
2018-07-23T20:11:23.038Z,19.40
2018-07-23T20:13:59.015Z,19.40
2018-07-23T20:16:36.817Z,19.30
2018-07-23T20:19:13.231Z,19.20
2018-07-23T20:21:48.663Z,19.20
2018-07-23T20:24:23.822Z,19.10
2018-07-23T20:26:58.623Z,19.00
2018-07-23T20:29:33.031Z,18.90
2018-07-23T20:32:08.074Z,18.90
2018-07-23T20:34:43.703Z,18.80
2018-07-23T20:37:18.871Z,18.80
2018-07-23T20:39:54.251Z,18.70
2018-07-23T20:42:29.545Z,18.70
2018-07-23T20:45:03.859Z,18.60
2018-07-23T20:47:38.830Z,18.60
2018-07-23T20:50:13.246Z,18.60
2018-07-23T20:52:48.605Z,18.50
2018-07-23T20:55:23.103Z,18.50
2018-07-23T20:57:57.857Z,18.40
2018-07-23T21:00:32.679Z,18.40
2018-07-23T21:03:07.718Z,18.40
2018-07-23T21:05:42.212Z,18.40
2018-07-23T21:08:16.873Z,18.40
2018-07-23T21:10:52.541Z,18.40
2018-07-23T21:13:26.669Z,18.40
2018-07-23T21:16:01.380Z,18.40
2018-07-23T21:18:36.301Z,18.40
2018-07-23T21:21:11.390Z,18.40
2018-07-23T21:23:46.036Z,18.40
2018-07-23T21:26:21.006Z,18.40
2018-07-23T21:28:55.944Z,18.40
2018-07-23T21:31:30.558Z,18.30
2018-07-23T21:34:05.637Z,18.30
2018-07-23T21:36:39.973Z,18.30
2018-07-23T21:39:14.923Z,18.30
2018-07-23T21:41:49.286Z,18.30
2018-07-23T21:44:24.092Z,18.20
2018-07-23T21:46:58.957Z,18.20
2018-07-23T21:49:33.900Z,18.20
2018-07-23T21:52:08.808Z,18.20
2018-07-23T21:54:43.101Z,18.20
2018-07-23T21:57:18.056Z,18.20
2018-07-23T21:59:53.496Z,18.10
2018-07-23T22:02:28.428Z,18.10
2018-07-23T22:05:03.229Z,18.10
2018-07-23T22:07:38.388Z,18.10
2018-07-23T22:10:13.108Z,18.10
2018-07-23T22:12:47.633Z,18.10
2018-07-23T22:15:22.595Z,18.10
2018-07-23T22:17:57.917Z,18.20
2018-07-23T22:20:32.943Z,18.10
2018-07-23T22:23:07.787Z,18.10
2018-07-23T22:25:42.226Z,18.10
2018-07-23T22:28:16.954Z,18.10
2018-07-23T22:30:51.841Z,18.10
2018-07-23T22:33:27.051Z,18.10
2018-07-23T22:36:01.533Z,18.10
2018-07-23T22:38:35.895Z,18.10
2018-07-23T22:41:10.554Z,18.10
2018-07-23T22:43:45.093Z,18.10
2018-07-23T22:46:19.901Z,18.10
2018-07-23T22:48:54.801Z,18.00
2018-07-23T22:51:29.793Z,18.00
2018-07-23T22:54:04.678Z,18.00
2018-07-23T22:56:39.682Z,17.90
2018-07-23T22:59:13.797Z,17.90
2018-07-23T23:01:48.795Z,17.90
2018-07-23T23:04:23.863Z,17.90
2018-07-23T23:06:58.666Z,17.80
2018-07-23T23:09:34.016Z,17.80
2018-07-23T23:12:08.212Z,17.80
2018-07-23T23:14:43.101Z,17.70
2018-07-23T23:17:18.056Z,17.70
2018-07-23T23:19:52.833Z,17.60
2018-07-23T23:22:27.720Z,17.60
2018-07-23T23:25:02.405Z,17.60
2018-07-23T23:27:36.985Z,17.60
2018-07-23T23:30:12.736Z,17.60
2018-07-23T23:32:47.444Z,17.50
2018-07-23T23:35:22.174Z,17.50
2018-07-23T23:37:57.171Z,17.50
2018-07-23T23:40:32.025Z,17.50
2018-07-23T23:43:06.764Z,17.40
2018-07-23T23:45:41.309Z,17.40
2018-07-23T23:48:16.062Z,17.40
2018-07-23T23:50:50.364Z,17.40
2018-07-23T23:53:25.212Z,17.40
2018-07-23T23:55:59.397Z,17.30
2018-07-23T23:58:34.262Z,17.30
